createdAt,value
2023-04-03T00:02:25.489Z,7.15
2023-04-03T00:04:53.946Z,13.65
2023-04-03T00:07:23.106Z,5.97
2023-04-03T00:09:51.361Z,6.70
2023-04-03T00:12:20.116Z,6.07
2023-04-03T00:14:48.487Z,9.18
2023-04-03T00:17:17.279Z,7.43
2023-04-03T00:19:45.532Z,8.75
2023-04-03T00:22:14.222Z,6.85
2023-04-03T00:24:43.491Z,5.38
2023-04-03T00:27:15.157Z,5.55
2023-04-03T00:29:46.425Z,5.85
2023-04-03T00:32:15.667Z,5.25
2023-04-03T00:34:44.984Z,3.75
2023-04-03T00:37:13.960Z,4.60
2023-04-03T00:39:42.474Z,5.10
2023-04-03T00:42:12.119Z,5.85
2023-04-03T00:44:40.505Z,7.25
2023-04-03T00:47:12.857Z,4.70
2023-04-03T00:49:42.345Z,8.50
2023-04-03T00:52:15.341Z,7.80
2023-04-03T00:54:45.561Z,7.97
2023-04-03T00:57:41.614Z,8.07
2023-04-03T01:00:14.093Z,7.50
2023-04-03T01:02:43.183Z,5.40
2023-04-03T01:05:16.704Z,9.97
2023-04-03T01:07:47.096Z,5.72
2023-04-03T01:10:18.243Z,5.22
2023-04-03T01:12:50.049Z,5.80
2023-04-03T01:15:25.257Z,5.95
2023-04-03T01:18:07.477Z,7.03
2023-04-03T01:21:02.961Z,8.95
2023-04-03T01:23:34.695Z,6.25
2023-04-03T01:26:04.591Z,6.03
2023-04-03T01:28:36.661Z,5.97
2023-04-03T01:31:28.264Z,6.85
2023-04-03T01:33:58.530Z,6.18
2023-04-03T01:36:30.587Z,4.65
2023-04-03T01:39:01.798Z,8.00
2023-04-03T01:41:31.363Z,5.50
2023-04-03T01:44:09.950Z,7.25
2023-04-03T01:46:39.131Z,7.43
2023-04-03T01:49:08.085Z,7.82
2023-04-03T01:51:36.908Z,10.20
2023-04-03T01:54:06.057Z,5.13
2023-04-03T01:56:34.446Z,8.15
2023-04-03T01:59:03.470Z,3.88
2023-04-03T02:01:32.092Z,7.13
2023-04-03T02:04:00.854Z,7.13
2023-04-03T02:06:29.390Z,4.38
2023-04-03T02:08:58.402Z,4.57
2023-04-03T02:11:27.102Z,7.70
2023-04-03T02:13:56.165Z,4.25
2023-04-03T02:16:24.813Z,6.07
2023-04-03T02:18:53.615Z,5.90
2023-04-03T02:21:21.974Z,4.35
2023-04-03T02:23:51.078Z,7.50
2023-04-03T02:26:21.136Z,6.07
2023-04-03T02:28:49.923Z,5.75
2023-04-03T02:31:19.527Z,9.93
2023-04-03T02:33:49.694Z,4.03
2023-04-03T02:36:18.904Z,3.83
2023-04-03T02:38:54.085Z,6.20
2023-04-03T02:41:22.731Z,7.28
2023-04-03T02:43:53.535Z,5.10
2023-04-03T02:46:22.044Z,7.45
2023-04-03T02:48:50.954Z,5.60
2023-04-03T02:51:19.684Z,6.45
2023-04-03T02:53:48.415Z,5.53
2023-04-03T02:56:21.612Z,4.78
2023-04-03T02:58:50.718Z,4.90
2023-04-03T03:01:21.336Z,6.72
2023-04-03T03:03:50.990Z,7.75
2023-04-03T03:06:19.546Z,8.00
2023-04-03T03:08:49.215Z,6.57
2023-04-03T03:11:17.596Z,4.18
2023-04-03T03:13:46.863Z,6.28
2023-04-03T03:16:15.750Z,6.18
2023-04-03T03:18:44.647Z,6.60
2023-04-03T03:21:15.503Z,6.95
2023-04-03T03:23:45.205Z,5.13
2023-04-03T03:26:14.031Z,4.32
2023-04-03T03:28:42.775Z,7.65
2023-04-03T03:31:13.533Z,3.50
2023-04-03T03:33:43.301Z,7.40
2023-04-03T03:36:11.958Z,4.55
2023-04-03T03:38:41.213Z,6.28
2023-04-03T03:41:11.737Z,7.93
2023-04-03T03:43:43.497Z,5.00
2023-04-03T03:46:13.110Z,12.38
2023-04-03T03:48:42.146Z,7.43
2023-04-03T03:51:10.682Z,8.00
2023-04-03T03:53:41.515Z,7.05
2023-04-03T03:56:17.713Z,6.97
2023-04-03T03:58:47.906Z,7.53
2023-04-03T04:01:17.905Z,6.25
2023-04-03T04:03:51.617Z,7.22
2023-04-03T04:06:23.623Z,8.45
2023-04-03T04:08:53.981Z,6.38
2023-04-03T04:11:23.148Z,5.78
2023-04-03T04:13:53.502Z,5.40
2023-04-03T04:16:26.502Z,5.78
2023-04-03T04:18:56.363Z,6.00
2023-04-03T04:21:29.626Z,5.18
2023-04-03T04:23:58.882Z,10.15
2023-04-03T04:26:27.918Z,6.03
2023-04-03T04:28:56.831Z,6.68
2023-04-03T04:31:25.133Z,5.03
2023-04-03T04:33:54.510Z,5.22
2023-04-03T04:36:23.238Z,5.10
2023-04-03T04:38:54.094Z,12.23
2023-04-03T04:41:25.133Z,7.28
2023-04-03T04:43:55.227Z,6.72
2023-04-03T04:46:24.354Z,4.88
2023-04-03T04:48:57.193Z,8.73
2023-04-03T04:51:29.563Z,7.15
2023-04-03T04:54:02.102Z,5.85
2023-04-03T04:56:30.634Z,6.20
2023-04-03T04:59:02.596Z,5.43
2023-04-03T05:01:31.216Z,5.95
2023-04-03T05:04:06.661Z,4.65
2023-04-03T05:06:36.262Z,4.75
2023-04-03T05:09:09.973Z,5.70
2023-04-03T05:11:38.724Z,8.77
2023-04-03T05:14:09.130Z,7.28
2023-04-03T05:16:38.660Z,6.32
2023-04-03T05:19:09.384Z,8.20
2023-04-03T05:21:38.110Z,6.05
2023-04-03T05:24:12.518Z,7.18
2023-04-03T05:26:44.584Z,8.80
2023-04-03T05:29:14.472Z,4.05
2023-04-03T05:31:43.568Z,6.50
2023-04-03T05:34:17.488Z,6.40
2023-04-03T05:36:47.828Z,8.60
2023-04-03T05:39:17.936Z,7.95
2023-04-03T05:41:48.667Z,9.07
2023-04-03T05:44:17.687Z,10.52
2023-04-03T05:46:47.810Z,4.85
2023-04-03T05:49:16.610Z,6.53
2023-04-03T05:51:46.312Z,8.15
2023-04-03T05:54:31.827Z,7.55
2023-04-03T05:57:10.359Z,7.93
2023-04-03T05:59:39.447Z,8.43
2023-04-03T06:02:08.362Z,8.82
2023-04-03T06:04:39.860Z,6.53
2023-04-03T06:07:12.261Z,5.88
2023-04-03T06:09:41.055Z,9.10
2023-04-03T06:12:10.095Z,8.43
2023-04-03T06:14:39.366Z,7.20
2023-04-03T06:17:10.450Z,6.43
2023-04-03T06:19:39.453Z,8.35
2023-04-03T06:22:08.208Z,5.07
2023-04-03T06:24:38.248Z,8.82
2023-04-03T06:27:06.534Z,5.32
2023-04-03T06:29:35.090Z,10.40
2023-04-03T06:32:03.484Z,11.45
2023-04-03T06:34:32.663Z,8.10
2023-04-03T06:37:01.151Z,11.23
2023-04-03T06:39:30.489Z,11.50
2023-04-03T06:41:58.749Z,3.53
2023-04-03T06:44:38.195Z,5.50
2023-04-03T06:47:06.690Z,4.85
2023-04-03T06:49:35.363Z,4.85
2023-04-03T06:52:04.391Z,4.20
2023-04-03T06:54:34.173Z,3.75
2023-04-03T06:57:03.085Z,4.70
2023-04-03T06:59:31.866Z,3.45
2023-04-03T07:02:00.928Z,5.55
2023-04-03T07:04:29.777Z,3.03
2023-04-03T07:06:58.682Z,8.40
2023-04-03T07:09:27.510Z,3.95
2023-04-03T07:11:56.018Z,4.35
2023-04-03T07:14:24.795Z,12.48
2023-04-03T07:16:52.995Z,11.00
2023-04-03T07:19:22.510Z,2.90
2023-04-03T07:21:50.884Z,3.65
2023-04-03T07:24:19.520Z,4.78
2023-04-03T07:26:52.732Z,6.55
2023-04-03T07:29:22.647Z,5.13
2023-04-03T07:31:51.144Z,4.25
2023-04-03T07:34:19.933Z,8.82
2023-04-03T07:36:48.304Z,3.50
2023-04-03T07:39:16.903Z,6.65
2023-04-03T07:41:45.228Z,4.72
2023-04-03T07:44:13.969Z,3.28
2023-04-03T07:46:43.435Z,6.20
2023-04-03T07:49:12.473Z,4.20
2023-04-03T07:51:41.371Z,4.72
2023-04-03T07:54:09.992Z,5.95
2023-04-03T07:56:38.735Z,2.92
2023-04-03T07:59:07.857Z,3.67
2023-04-03T08:01:36.266Z,3.38
2023-04-03T08:04:05.205Z,3.30
2023-04-03T08:06:45.753Z,3.40
2023-04-03T08:09:16.620Z,5.37
2023-04-03T08:11:45.725Z,3.08
2023-04-03T08:14:18.017Z,3.20
2023-04-03T08:16:48.403Z,3.65
2023-04-03T08:19:26.084Z,4.45
2023-04-03T08:21:56.331Z,6.90
2023-04-03T08:24:26.396Z,4.30
2023-04-03T08:26:54.849Z,3.72
2023-04-03T08:29:23.651Z,2.42
2023-04-03T08:31:52.228Z,5.25
2023-04-03T08:34:21.098Z,3.35
2023-04-03T08:36:49.558Z,2.33
2023-04-03T08:39:18.204Z,4.40
2023-04-03T08:41:49.058Z,2.85
2023-04-03T08:44:39.669Z,4.32
2023-04-03T08:47:37.852Z,3.85
2023-04-03T08:50:39.711Z,2.83
2023-04-03T08:53:15.241Z,4.10
2023-04-03T08:55:50.484Z,3.10
2023-04-03T08:58:25.700Z,1.80
2023-04-03T09:01:02.227Z,2.92
2023-04-03T09:03:33.830Z,2.50
2023-04-03T09:06:33.890Z,3.42
2023-04-03T09:09:12.130Z,2.47
2023-04-03T09:11:55.680Z,6.20
2023-04-03T09:14:36.036Z,4.55
2023-04-03T09:17:15.366Z,5.05
2023-04-03T09:20:22.905Z,2.80
2023-04-03T09:22:53.902Z,3.28
2023-04-03T09:25:38.504Z,3.25
2023-04-03T09:28:11.225Z,3.75
2023-04-03T09:30:40.037Z,3.70
2023-04-03T09:33:10.085Z,4.93
2023-04-03T09:35:48.303Z,2.92
2023-04-03T09:38:21.451Z,4.28
2023-04-03T09:41:03.790Z,7.55
2023-04-03T09:43:34.223Z,13.02
2023-04-03T09:46:31.520Z,3.13
2023-04-03T09:49:09.364Z,5.15
2023-04-03T09:51:39.037Z,5.72
2023-04-03T09:54:34.530Z,4.35
2023-04-03T09:57:11.549Z,2.92
2023-04-03T09:59:46.529Z,2.88
2023-04-03T10:02:36.356Z,6.68
2023-04-03T10:05:26.040Z,3.17
2023-04-03T10:08:28.322Z,3.50
2023-04-03T10:14:00.880Z,2.40
2023-04-03T10:17:08.420Z,2.45
2023-04-03T10:19:57.468Z,5.15
2023-04-03T10:22:29.549Z,2.50
2023-04-03T10:25:24.552Z,1.95
2023-04-03T10:28:05.938Z,2.72
2023-04-03T10:30:43.268Z,2.47
2023-04-03T10:33:42.995Z,2.33
2023-04-03T10:36:38.381Z,3.17
2023-04-03T10:39:34.688Z,3.13
2023-04-03T10:42:27.723Z,2.65
2023-04-03T10:45:21.810Z,1.75
2023-04-03T10:48:30.610Z,2.95
2023-04-03T10:51:36.659Z,1.95
2023-04-03T10:54:27.185Z,3.30
2023-04-03T10:57:12.002Z,1.75
2023-04-03T10:59:55.247Z,1.52
2023-04-03T11:02:43.353Z,2.92
2023-04-03T11:05:51.856Z,5.68
2023-04-03T11:08:48.432Z,4.68
2023-04-03T11:11:22.521Z,2.20
2023-04-03T11:13:57.968Z,3.65
2023-04-03T11:16:33.562Z,2.55
2023-04-03T11:19:13.420Z,4.80
2023-04-03T11:21:54.216Z,1.73
2023-04-03T11:24:29.041Z,1.05
2023-04-03T11:26:59.692Z,2.55
2023-04-03T11:29:36.274Z,2.07
2023-04-03T11:32:38.210Z,3.60
2023-04-03T11:35:09.820Z,4.10
2023-04-03T11:37:45.343Z,3.53
2023-04-03T11:40:17.067Z,2.88
2023-04-03T11:43:09.214Z,3.08
2023-04-03T11:48:30.626Z,2.10
2023-04-03T11:51:03.948Z,1.45
2023-04-03T11:53:35.726Z,3.17
2023-04-03T11:59:14.784Z,1.85
2023-04-03T12:01:49.081Z,4.07
2023-04-03T12:04:19.858Z,5.65
2023-04-03T12:06:50.067Z,4.30
2023-04-03T12:09:56.855Z,3.42
2023-04-03T12:12:33.527Z,5.07
2023-04-03T12:15:25.752Z,2.20
2023-04-03T12:17:54.818Z,2.58
2023-04-03T12:20:50.922Z,3.47
2023-04-03T12:23:37.385Z,1.98
2023-04-03T12:26:35.366Z,2.40
2023-04-03T12:29:50.579Z,2.20
2023-04-03T12:32:49.270Z,3.28
2023-04-03T12:35:29.615Z,2.45
2023-04-03T12:37:58.669Z,2.03
2023-04-03T12:40:53.563Z,2.20
2023-04-03T12:44:00.387Z,3.03
2023-04-03T12:46:40.905Z,2.72
2023-04-03T12:49:21.505Z,2.60
2023-04-03T12:51:51.580Z,3.17
2023-04-03T12:54:37.199Z,4.40
2023-04-03T12:57:21.686Z,2.30
2023-04-03T12:59:50.401Z,1.85
2023-04-03T13:02:31.620Z,4.93
2023-04-03T13:05:08.737Z,4.18
2023-04-03T13:07:40.181Z,1.95
2023-04-03T13:10:11.111Z,1.07
2023-04-03T13:13:07.781Z,1.10
2023-04-03T13:15:46.435Z,2.47
2023-04-03T13:18:32.622Z,2.22
2023-04-03T13:21:25.836Z,2.25
2023-04-03T13:24:14.956Z,3.33
2023-04-03T13:26:44.599Z,2.60
2023-04-03T13:29:31.072Z,1.83
2023-04-03T13:32:02.596Z,2.08
2023-04-03T13:35:00.405Z,3.22
2023-04-03T13:37:36.108Z,3.42
2023-04-03T13:40:07.858Z,3.17
2023-04-03T13:42:39.528Z,4.40
2023-04-03T13:45:21.473Z,3.55
2023-04-03T13:47:51.139Z,1.85
2023-04-03T13:50:23.732Z,4.78
2023-04-03T13:53:04.878Z,3.92
2023-04-03T13:55:52.530Z,4.93
2023-04-03T13:58:27.346Z,4.03
2023-04-03T14:01:10.963Z,4.63
2023-04-03T14:03:47.501Z,4.25
2023-04-03T14:06:17.801Z,3.58
2023-04-03T14:08:47.280Z,5.45
2023-04-03T14:11:19.977Z,6.20
2023-04-03T14:13:52.589Z,5.13
2023-04-03T14:16:28.822Z,3.10
2023-04-03T14:18:57.797Z,2.88
2023-04-03T14:21:27.020Z,4.38
2023-04-03T14:23:55.702Z,4.18
2023-04-03T14:26:27.648Z,3.80
2023-04-03T14:28:56.838Z,8.57
2023-04-03T14:31:25.932Z,5.40
2023-04-03T14:33:54.556Z,5.15
2023-04-03T14:36:26.450Z,7.80
2023-04-03T14:38:56.091Z,6.50
2023-04-03T14:41:27.683Z,4.57
2023-04-03T14:43:56.036Z,2.22
2023-04-03T14:46:54.370Z,5.25
2023-04-03T14:49:30.685Z,3.50
2023-04-03T14:51:59.519Z,6.50
2023-04-03T14:54:29.094Z,4.15
2023-04-03T14:57:01.239Z,4.22
2023-04-03T14:59:31.922Z,4.25
2023-04-03T15:02:00.546Z,5.30
2023-04-03T15:04:29.305Z,5.47
2023-04-03T15:06:57.991Z,5.90
2023-04-03T15:09:28.543Z,9.45
2023-04-03T15:11:57.358Z,7.28
2023-04-03T15:14:37.087Z,6.20
2023-04-03T15:17:21.555Z,4.03
2023-04-03T15:19:49.873Z,7.25
2023-04-03T15:22:20.337Z,8.27
2023-04-03T15:24:49.466Z,8.10
2023-04-03T15:27:18.161Z,12.02
2023-04-03T15:29:46.806Z,5.40
2023-04-03T15:32:15.385Z,5.85
2023-04-03T15:34:43.846Z,12.48
2023-04-03T15:37:12.456Z,6.07
2023-04-03T15:39:40.712Z,6.07
2023-04-03T15:42:09.588Z,6.30
2023-04-03T15:44:37.955Z,3.53
2023-04-03T15:47:07.411Z,3.70
2023-04-03T15:49:36.340Z,5.68
2023-04-03T15:52:05.573Z,5.15
2023-04-03T15:54:34.260Z,4.57
2023-04-03T15:57:03.005Z,3.90
2023-04-03T15:59:33.112Z,4.50
2023-04-03T16:02:04.898Z,6.57
2023-04-03T16:04:34.562Z,3.80
2023-04-03T16:07:04.762Z,3.03
2023-04-03T16:09:35.388Z,3.80
2023-04-03T16:12:04.361Z,3.05
2023-04-03T16:14:32.606Z,2.88
2023-04-03T16:17:01.599Z,2.47
2023-04-03T16:19:30.950Z,4.88
2023-04-03T16:21:59.983Z,2.45
2023-04-03T16:24:28.372Z,2.55
2023-04-03T16:26:57.094Z,4.32
2023-04-03T16:29:25.381Z,3.20
2023-04-03T16:31:55.176Z,5.68
2023-04-03T16:34:23.660Z,4.78
2023-04-03T16:36:53.490Z,2.25
2023-04-03T16:39:30.830Z,3.28
2023-04-03T16:41:59.385Z,2.72
2023-04-03T16:44:29.452Z,5.78
2023-04-03T16:46:58.086Z,6.65
2023-04-03T16:49:26.691Z,5.72
2023-04-03T16:52:20.214Z,13.50
2023-04-03T16:54:48.679Z,11.32
2023-04-03T16:57:17.305Z,5.13
2023-04-03T16:59:45.616Z,5.82
2023-04-03T17:02:14.305Z,6.30
2023-04-03T17:04:42.646Z,7.32
2023-04-03T17:07:11.365Z,4.70
2023-04-03T17:09:39.782Z,4.15
2023-04-03T17:12:08.523Z,5.32
2023-04-03T17:14:36.963Z,3.75
2023-04-03T17:17:05.966Z,5.28
2023-04-03T17:19:34.823Z,3.05
2023-04-03T17:22:03.637Z,7.10
2023-04-03T17:24:32.217Z,4.80
2023-04-03T17:27:01.156Z,4.82
2023-04-03T17:29:29.813Z,15.43
2023-04-03T17:31:58.582Z,28.25
2023-04-03T17:34:27.091Z,35.15
2023-04-03T17:36:55.958Z,22.08
2023-04-03T17:39:24.506Z,5.35
2023-04-03T17:41:55.199Z,7.88
2023-04-03T17:44:27.165Z,7.63
2023-04-03T17:47:34.706Z,4.35
2023-04-03T17:50:07.209Z,13.70
2023-04-03T17:52:37.722Z,12.30
2023-04-03T17:55:17.862Z,5.50
2023-04-03T17:57:46.924Z,7.03
2023-04-03T18:00:19.389Z,9.52
2023-04-03T18:02:51.993Z,5.50
2023-04-03T18:10:42.820Z,13.98
2023-04-03T18:13:16.157Z,70.22
2023-04-03T18:16:23.738Z,107.97
2023-04-03T18:19:06.861Z,323.80
2023-04-03T18:21:45.969Z,89.85
2023-04-03T18:24:23.441Z,141.50
2023-04-03T18:27:00.892Z,162.45
2023-04-03T18:29:39.291Z,343.90
2023-04-03T18:32:13.712Z,72.18
2023-04-03T18:34:44.813Z,249.52
2023-04-03T18:37:13.713Z,329.08
2023-04-03T18:39:43.010Z,184.63
2023-04-03T18:42:26.430Z,251.23
2023-04-03T18:45:01.818Z,276.80
2023-04-03T18:47:30.969Z,44.80
2023-04-03T18:52:34.555Z,13.07
2023-04-03T18:55:05.042Z,16.83
2023-04-03T18:57:40.966Z,6.50
2023-04-03T19:00:10.523Z,17.55
2023-04-03T19:02:39.651Z,10.15
2023-04-03T19:05:13.262Z,11.35
2023-04-03T19:07:47.472Z,17.30
2023-04-03T19:10:19.034Z,27.38
2023-04-03T19:12:55.210Z,21.42
2023-04-03T19:15:26.928Z,12.43
2023-04-03T19:17:59.222Z,8.32
2023-04-03T19:20:32.699Z,13.63
2023-04-03T19:23:39.813Z,10.40
2023-04-03T19:26:32.423Z,9.48
2023-04-03T19:29:22.824Z,11.52
2023-04-03T19:31:54.377Z,14.68
2023-04-03T19:34:24.154Z,15.00
2023-04-03T19:36:56.926Z,10.15
2023-04-03T19:39:26.633Z,10.60
2023-04-03T19:41:55.636Z,12.70
2023-04-03T19:44:24.062Z,9.38
2023-04-03T19:47:03.364Z,12.38
2023-04-03T19:49:33.163Z,11.20
2023-04-03T19:52:01.881Z,12.65
2023-04-03T19:54:33.405Z,15.88
2023-04-03T19:57:02.346Z,14.38
2023-04-03T19:59:31.178Z,16.10
2023-04-03T20:02:00.532Z,15.70
2023-04-03T20:04:29.213Z,11.10
2023-04-03T20:07:02.450Z,18.52
2023-04-03T20:09:33.307Z,11.13
2023-04-03T20:12:04.217Z,6.70
2023-04-03T20:14:32.818Z,11.30
2023-04-03T20:17:01.655Z,14.18
2023-04-03T20:19:30.890Z,10.02
2023-04-03T20:22:01.310Z,11.45
2023-04-03T20:24:29.650Z,16.50
2023-04-03T20:26:58.870Z,14.88
2023-04-03T20:29:31.526Z,10.23
2023-04-03T20:32:05.139Z,9.45
2023-04-03T20:34:42.753Z,14.88
2023-04-03T20:39:56.964Z,8.23
2023-04-03T20:42:26.513Z,22.75
2023-04-03T20:44:58.825Z,14.27
2023-04-03T20:47:30.073Z,12.65
2023-04-03T20:49:58.764Z,9.82
2023-04-03T20:52:31.229Z,14.18
2023-04-03T20:54:59.799Z,13.32
2023-04-03T20:57:28.817Z,15.50
2023-04-03T21:00:01.087Z,11.88
2023-04-03T21:02:36.589Z,21.45
2023-04-03T21:05:09.850Z,12.85
2023-04-03T21:08:20.926Z,13.55
2023-04-03T21:11:31.760Z,26.30
2023-04-03T21:14:38.760Z,18.13
2023-04-03T21:17:12.473Z,11.23
2023-04-03T21:19:46.795Z,9.32
2023-04-03T21:22:24.639Z,8.20
2023-04-03T21:24:53.971Z,7.97
2023-04-03T21:27:22.620Z,9.23
2023-04-03T21:29:53.852Z,9.80
2023-04-03T21:32:22.781Z,6.13
2023-04-03T21:34:58.752Z,8.55
2023-04-03T21:37:27.228Z,9.80
2023-04-03T21:39:56.651Z,7.22
2023-04-03T21:42:25.431Z,7.55
2023-04-03T21:44:54.651Z,8.35
2023-04-03T21:47:24.034Z,5.88
2023-04-03T21:49:52.814Z,5.00
2023-04-03T21:52:27.514Z,5.05
2023-04-03T21:55:16.937Z,5.03
2023-04-03T21:57:51.560Z,4.80
2023-04-03T22:00:24.348Z,3.83
2023-04-03T22:03:00.528Z,3.70
2023-04-03T22:05:39.993Z,3.35
2023-04-03T22:08:18.166Z,4.60
2023-04-03T22:10:48.506Z,3.60
2023-04-03T22:13:17.423Z,4.22
2023-04-03T22:15:49.535Z,6.22
2023-04-03T22:18:20.814Z,7.07
2023-04-03T22:20:49.925Z,4.30
2023-04-03T22:23:25.219Z,4.53
2023-04-03T22:26:02.161Z,4.25
2023-04-03T22:28:42.375Z,6.05
2023-04-03T22:31:17.084Z,4.00
2023-04-03T22:33:48.339Z,4.32
2023-04-03T22:36:24.438Z,5.50
2023-04-03T22:38:53.379Z,4.97
2023-04-03T22:41:22.531Z,5.00
2023-04-03T22:43:52.892Z,5.40
2023-04-03T22:46:21.809Z,5.07
2023-04-03T22:48:50.309Z,6.07
2023-04-03T22:51:19.071Z,10.20
2023-04-03T22:53:47.534Z,8.95
2023-04-03T22:56:17.988Z,6.25
2023-04-03T22:58:49.155Z,5.10
2023-04-03T23:01:20.808Z,6.28
2023-04-03T23:03:49.624Z,9.60
2023-04-03T23:06:19.964Z,7.90
2023-04-03T23:08:51.469Z,8.25
2023-04-03T23:11:20.254Z,6.78
2023-04-03T23:13:48.649Z,8.38
2023-04-03T23:16:22.451Z,6.70
2023-04-03T23:19:06.312Z,5.43
2023-04-03T23:21:35.216Z,8.73
2023-04-03T23:24:03.794Z,5.45
2023-04-03T23:26:34.456Z,11.98
2023-04-03T23:29:04.082Z,8.30
2023-04-03T23:31:33.429Z,7.68
2023-04-03T23:34:02.240Z,7.55
2023-04-03T23:36:32.435Z,7.03
2023-04-03T23:39:05.131Z,9.35
2023-04-03T23:41:34.302Z,5.53
2023-04-03T23:44:03.003Z,9.27
2023-04-03T23:46:33.126Z,9.00
2023-04-03T23:49:01.914Z,7.57
2023-04-03T23:51:30.708Z,8.35
2023-04-03T23:54:01.772Z,7.38
2023-04-03T23:56:39.518Z,7.57
2023-04-03T23:59:10.674Z,9.77
